sensor_id;sensor_type;location;lat;lon;timestamp;pressure;altitude;pressure_sealevel;temperature;humidity
55068;BME280;40965;52.368;9.712;2023-07-20T00:01:50;100573.34;;;15.16;92.37
55068;BME280;40965;52.368;9.712;2023-07-20T00:04:17;100574.13;;;15.19;92.48
55068;BME280;40965;52.368;9.712;2023-07-20T00:06:43;100578.47;;;15.22;92.76
55068;BME280;40965;52.368;9.712;2023-07-20T00:09:11;100578.50;;;15.20;93.11
55068;BME280;40965;52.368;9.712;2023-07-20T00:11:38;100575.94;;;15.19;93.24
55068;BME280;40965;52.368;9.712;2023-07-20T00:14:06;100565.66;;;15.10;94.16
55068;BME280;40965;52.368;9.712;2023-07-20T00:16:33;100568.50;;;15.02;94.63
55068;BME280;40965;52.368;9.712;2023-07-20T00:18:59;100566.94;;;14.95;95.33
55068;BME280;40965;52.368;9.712;2023-07-20T00:21:26;100561.84;;;14.88;95.50
55068;BME280;40965;52.368;9.712;2023-07-20T00:23:52;100558.44;;;14.85;95.96
55068;BME280;40965;52.368;9.712;2023-07-20T00:26:19;100558.63;;;14.79;96.15
55068;BME280;40965;52.368;9.712;2023-07-20T00:28:46;100556.13;;;14.72;96.41
55068;BME280;40965;52.368;9.712;2023-07-20T00:31:12;100551.03;;;14.66;96.74
55068;BME280;40965;52.368;9.712;2023-07-20T00:33:39;100547.63;;;14.63;97.67
55068;BME280;40965;52.368;9.712;2023-07-20T00:36:05;100552.13;;;14.58;97.55
55068;BME280;40965;52.368;9.712;2023-07-20T00:38:32;100555.72;;;14.53;98.13
55068;BME280;40965;52.368;9.712;2023-07-20T00:40:59;100561.19;;;14.47;99.48
55068;BME280;40965;52.368;9.712;2023-07-20T00:43:25;100555.97;;;14.46;99.66
55068;BME280;40965;52.368;9.712;2023-07-20T00:45:52;100558.66;;;14.43;99.20
55068;BME280;40965;52.368;9.712;2023-07-20T00:48:19;100554.47;;;14.35;99.63
55068;BME280;40965;52.368;9.712;2023-07-20T00:50:46;100552.78;;;14.33;100.00
55068;BME280;40965;52.368;9.712;2023-07-20T00:53:13;100554.53;;;14.32;99.68
55068;BME280;40965;52.368;9.712;2023-07-20T00:55:40;100549.38;;;14.29;100.00
55068;BME280;40965;52.368;9.712;2023-07-20T00:58:07;100545.94;;;14.26;100.00
55068;BME280;40965;52.368;9.712;2023-07-20T01:00:34;100540.78;;;14.22;100.00
55068;BME280;40965;52.368;9.712;2023-07-20T01:03:01;100538.13;;;14.22;100.00
55068;BME280;40965;52.368;9.712;2023-07-20T01:05:48;100534.75;;;14.17;100.00
55068;BME280;40965;52.368;9.712;2023-07-20T01:08:49;100544.41;;;14.17;100.00
55068;BME280;40965;52.368;9.712;2023-07-20T01:11:36;100549.75;;;14.14;100.00
55068;BME280;40965;52.368;9.712;2023-07-20T01:14:05;100549.81;;;14.12;100.00
55068;BME280;40965;52.368;9.712;2023-07-20T01:16:33;100549.06;;;14.07;100.00
55068;BME280;40965;52.368;9.712;2023-07-20T01:19:00;100549.09;;;14.04;100.00
55068;BME280;40965;52.368;9.712;2023-07-20T01:21:51;100554.47;;;14.01;100.00
55068;BME280;40965;52.368;9.712;2023-07-20T01:24:57;100557.19;;;13.98;100.00
55068;BME280;40965;52.368;9.712;2023-07-20T01:28:07;100551.03;;;13.97;100.00
55068;BME280;40965;52.368;9.712;2023-07-20T01:30:55;100546.56;;;14.01;100.00
55068;BME280;40965;52.368;9.712;2023-07-20T01:33:26;100550.84;;;14.05;100.00
55068;BME280;40965;52.368;9.712;2023-07-20T01:35:56;100546.28;;;14.13;100.00
55068;BME280;40965;52.368;9.712;2023-07-20T01:38:25;100545.16;;;14.22;100.00
55068;BME280;40965;52.368;9.712;2023-07-20T01:40:52;100553.56;;;14.36;100.00
55068;BME280;40965;52.368;9.712;2023-07-20T01:43:19;100548.03;;;14.47;100.00
55068;BME280;40965;52.368;9.712;2023-07-20T01:45:45;100553.16;;;14.52;100.00
55068;BME280;40965;52.368;9.712;2023-07-20T01:48:12;100558.34;;;14.55;99.86
55068;BME280;40965;52.368;9.712;2023-07-20T01:50:39;100553.03;;;14.56;99.75
55068;BME280;40965;52.368;9.712;2023-07-20T01:53:05;100551.31;;;14.55;99.19
55068;BME280;40965;52.368;9.712;2023-07-20T01:55:32;100555.72;;;14.55;99.33
55068;BME280;40965;52.368;9.712;2023-07-20T01:57:58;100553.09;;;14.55;99.29
55068;BME280;40965;52.368;9.712;2023-07-20T02:00:27;100553.84;;;14.59;98.77
55068;BME280;40965;52.368;9.712;2023-07-20T02:02:54;100548.50;;;14.62;98.93
55068;BME280;40965;52.368;9.712;2023-07-20T02:05:20;100540.59;;;14.62;98.76
55068;BME280;40965;52.368;9.712;2023-07-20T02:07:47;100543.34;;;14.57;98.86
55068;BME280;40965;52.368;9.712;2023-07-20T02:10:13;100541.75;;;14.51;98.99
55068;BME280;40965;52.368;9.712;2023-07-20T02:12:40;100536.66;;;14.45;99.21
55068;BME280;40965;52.368;9.712;2023-07-20T02:15:07;100538.69;;;14.35;100.00
55068;BME280;40965;52.368;9.712;2023-07-20T02:17:34;100533.63;;;14.26;99.92
55068;BME280;40965;52.368;9.712;2023-07-20T02:20:01;100527.66;;;14.19;100.00
55068;BME280;40965;52.368;9.712;2023-07-20T02:22:28;100541.94;;;14.11;100.00
55068;BME280;40965;52.368;9.712;2023-07-20T02:24:55;100542.94;;;14.05;100.00
55068;BME280;40965;52.368;9.712;2023-07-20T02:27:21;100544.88;;;13.98;100.00
55068;BME280;40965;52.368;9.712;2023-07-20T02:29:48;100548.53;;;13.93;100.00
55068;BME280;40965;52.368;9.712;2023-07-20T02:32:15;100545.16;;;13.87;100.00
55068;BME280;40965;52.368;9.712;2023-07-20T02:34:42;100549.56;;;13.85;100.00
55068;BME280;40965;52.368;9.712;2023-07-20T02:37:09;100547.84;;;13.84;100.00
55068;BME280;40965;52.368;9.712;2023-07-20T02:39:38;100552.09;;;13.90;100.00
55068;BME280;40965;52.368;9.712;2023-07-20T02:42:05;100552.91;;;13.94;100.00
55068;BME280;40965;52.368;9.712;2023-07-20T02:44:32;100547.41;;;14.01;100.00
55068;BME280;40965;52.368;9.712;2023-07-20T02:46:59;100547.22;;;14.11;100.00
55068;BME280;40965;52.368;9.712;2023-07-20T02:49:26;100541.72;;;14.20;100.00
55068;BME280;40965;52.368;9.712;2023-07-20T02:51:53;100549.31;;;14.31;100.00
55068;BME280;40965;52.368;9.712;2023-07-20T02:54:21;100549.97;;;14.41;100.00
55068;BME280;40965;52.368;9.712;2023-07-20T02:56:47;100554.94;;;14.51;99.69
55068;BME280;40965;52.368;9.712;2023-07-20T02:59:14;100546.88;;;14.58;99.11
55068;BME280;40965;52.368;9.712;2023-07-20T03:01:42;100554.59;;;14.65;98.59
55068;BME280;40965;52.368;9.712;2023-07-20T03:04:09;100547.53;;;14.66;98.53
55068;BME280;40965;52.368;9.712;2023-07-20T03:06:36;100552.72;;;14.69;98.11
55068;BME280;40965;52.368;9.712;2023-07-20T03:09:03;100548.28;;;14.71;98.06
55068;BME280;40965;52.368;9.712;2023-07-20T03:11:30;100550.03;;;14.72;98.08
55068;BME280;40965;52.368;9.712;2023-07-20T03:13:58;100550.78;;;14.76;97.54
55068;BME280;40965;52.368;9.712;2023-07-20T03:16:24;100557.81;;;14.75;97.75
55068;BME280;40965;52.368;9.712;2023-07-20T03:18:52;100560.47;;;14.75;97.53
55068;BME280;40965;52.368;9.712;2023-07-20T03:21:18;100561.34;;;14.74;97.65
55068;BME280;40965;52.368;9.712;2023-07-20T03:23:45;100550.81;;;14.74;97.69
55068;BME280;40965;52.368;9.712;2023-07-20T03:26:12;100554.16;;;14.81;97.34
55068;BME280;40965;52.368;9.712;2023-07-20T03:28:38;100554.13;;;14.82;97.06
55068;BME280;40965;52.368;9.712;2023-07-20T03:31:05;100563.72;;;14.83;97.02
55068;BME280;40965;52.368;9.712;2023-07-20T03:33:32;100561.09;;;14.83;97.13
55068;BME280;40965;52.368;9.712;2023-07-20T03:36:00;100565.41;;;14.87;96.84
55068;BME280;40965;52.368;9.712;2023-07-20T03:38:27;100559.97;;;14.92;96.79
55068;BME280;40965;52.368;9.712;2023-07-20T03:40:58;100559.09;;;14.93;96.50
55068;BME280;40965;52.368;9.712;2023-07-20T03:43:29;100554.53;;;14.98;96.50
55068;BME280;40965;52.368;9.712;2023-07-20T03:45:55;100556.13;;;15.04;96.07
55068;BME280;40965;52.368;9.712;2023-07-20T03:48:24;100551.84;;;15.00;96.09
55068;BME280;40965;52.368;9.712;2023-07-20T03:50:52;100555.19;;;15.07;95.84
55068;BME280;40965;52.368;9.712;2023-07-20T03:53:20;100557.59;;;15.14;95.56
55068;BME280;40965;52.368;9.712;2023-07-20T03:55:50;100554.84;;;15.17;95.33
55068;BME280;40965;52.368;9.712;2023-07-20T03:58:18;100557.41;;;15.20;94.84
55068;BME280;40965;52.368;9.712;2023-07-20T04:00:51;100557.31;;;15.24;94.78
55068;BME280;40965;52.368;9.712;2023-07-20T04:03:21;100555.50;;;15.26;94.40
55068;BME280;40965;52.368;9.712;2023-07-20T04:05:48;100562.59;;;15.24;94.70
55068;BME280;40965;52.368;9.712;2023-07-20T04:08:14;100566.09;;;15.24;94.46
55068;BME280;40965;52.368;9.712;2023-07-20T04:10:44;100575.72;;;15.25;94.94
55068;BME280;40965;52.368;9.712;2023-07-20T04:13:11;100578.50;;;15.20;96.51
55068;BME280;40965;52.368;9.712;2023-07-20T04:15:38;100576.22;;;15.08;97.43
55068;BME280;40965;52.368;9.712;2023-07-20T04:18:05;100583.59;;;14.95;99.70
55068;BME280;40965;52.368;9.712;2023-07-20T04:20:31;100580.69;;;14.75;100.00
55068;BME280;40965;52.368;9.712;2023-07-20T04:22:58;100579.34;;;14.58;100.00
55068;BME280;40965;52.368;9.712;2023-07-20T04:25:24;100580.47;;;14.48;100.00
55068;BME280;40965;52.368;9.712;2023-07-20T04:27:51;100583.44;;;14.35;100.00
55068;BME280;40965;52.368;9.712;2023-07-20T04:30:18;100594.28;;;14.23;100.00
55068;BME280;40965;52.368;9.712;2023-07-20T04:32:48;100586.69;;;14.11;100.00
55068;BME280;40965;52.368;9.712;2023-07-20T04:35:48;100586.19;;;13.96;100.00
55068;BME280;40965;52.368;9.712;2023-07-20T04:38:16;100596.06;;;13.85;100.00
55068;BME280;40965;52.368;9.712;2023-07-20T04:40:52;100598.75;;;13.82;100.00
55068;BME280;40965;52.368;9.712;2023-07-20T04:43:18;100599.69;;;13.79;100.00
55068;BME280;40965;52.368;9.712;2023-07-20T04:45:45;100602.31;;;13.81;100.00
55068;BME280;40965;52.368;9.712;2023-07-20T04:48:13;100601.53;;;13.77;100.00
55068;BME280;40965;52.368;9.712;2023-07-20T04:50:43;100601.44;;;13.80;100.00
55068;BME280;40965;52.368;9.712;2023-07-20T04:53:11;100603.13;;;13.83;100.00
55068;BME280;40965;52.368;9.712;2023-07-20T04:55:39;100606.66;;;13.83;100.00
55068;BME280;40965;52.368;9.712;2023-07-20T04:58:06;100603.03;;;13.87;100.00
55068;BME280;40965;52.368;9.712;2023-07-20T05:00:34;100597.47;;;14.00;100.00
55068;BME280;40965;52.368;9.712;2023-07-20T05:03:01;100597.28;;;14.07;100.00
55068;BME280;40965;52.368;9.712;2023-07-20T05:05:28;100602.44;;;14.12;100.00
55068;BME280;40965;52.368;9.712;2023-07-20T05:07:54;100599.69;;;14.18;100.00
55068;BME280;40965;52.368;9.712;2023-07-20T05:10:21;100594.22;;;14.25;100.00
55068;BME280;40965;52.368;9.712;2023-07-20T05:12:47;100603.78;;;14.29;100.00
55068;BME280;40965;52.368;9.712;2023-07-20T05:15:14;100603.63;;;14.35;100.00
55068;BME280;40965;52.368;9.712;2023-07-20T05:17:41;100606.16;;;14.39;100.00
55068;BME280;40965;52.368;9.712;2023-07-20T05:20:07;100607.75;;;14.45;100.00
55068;BME280;40965;52.368;9.712;2023-07-20T05:22:38;100609.34;;;14.51;100.00
55068;BME280;40965;52.368;9.712;2023-07-20T05:25:09;100608.41;;;14.55;100.00
55068;BME280;40965;52.368;9.712;2023-07-20T05:27:37;100611.78;;;14.59;100.00
55068;BME280;40965;52.368;9.712;2023-07-20T05:30:05;100613.66;;;14.55;100.00
55068;BME280;40965;52.368;9.712;2023-07-20T05:32:33;100611.84;;;14.57;100.00
55068;BME280;40965;52.368;9.712;2023-07-20T05:35:00;100613.50;;;14.61;100.00
55068;BME280;40965;52.368;9.712;2023-07-20T05:37:27;100619.53;;;14.66;100.00
55068;BME280;40965;52.368;9.712;2023-07-20T05:39:57;100623.00;;;14.68;100.00
55068;BME280;40965;52.368;9.712;2023-07-20T05:42:24;100624.66;;;14.72;100.00
55068;BME280;40965;52.368;9.712;2023-07-20T05:44:51;100625.44;;;14.76;100.00
55068;BME280;40965;52.368;9.712;2023-07-20T05:47:21;100621.91;;;14.76;100.00
55068;BME280;40965;52.368;9.712;2023-07-20T05:49:48;100628.13;;;14.75;100.00
55068;BME280;40965;52.368;9.712;2023-07-20T05:52:15;100634.25;;;14.75;100.00
55068;BME280;40965;52.368;9.712;2023-07-20T05:54:42;100626.28;;;14.77;100.00
55068;BME280;40965;52.368;9.712;2023-07-20T05:57:08;100628.03;;;14.78;100.00
55068;BME280;40965;52.368;9.712;2023-07-20T05:59:36;100625.38;;;14.78;100.00
55068;BME280;40965;52.368;9.712;2023-07-20T06:02:03;100623.53;;;14.81;100.00
55068;BME280;40965;52.368;9.712;2023-07-20T06:04:30;100629.47;;;14.89;100.00
55068;BME280;40965;52.368;9.712;2023-07-20T06:06:58;100629.31;;;14.96;100.00
55068;BME280;40965;52.368;9.712;2023-07-20T06:09:28;100629.22;;;14.99;100.00
55068;BME280;40965;52.368;9.712;2023-07-20T06:11:55;100631.84;;;14.99;100.00
55068;BME280;40965;52.368;9.712;2023-07-20T06:14:22;100626.25;;;15.11;100.00
55068;BME280;40965;52.368;9.712;2023-07-20T06:16:48;100625.03;;;15.23;100.00
55068;BME280;40965;52.368;9.712;2023-07-20T06:19:15;100629.97;;;15.34;100.00
55068;BME280;40965;52.368;9.712;2023-07-20T06:21:43;100618.66;;;15.30;100.00
55068;BME280;40965;52.368;9.712;2023-07-20T06:24:10;100626.50;;;15.33;100.00
55068;BME280;40965;52.368;9.712;2023-07-20T06:26:37;100632.44;;;15.40;100.00
55068;BME280;40965;52.368;9.712;2023-07-20T06:29:07;100634.84;;;15.48;100.00
55068;BME280;40965;52.368;9.712;2023-07-20T06:31:35;100631.25;;;15.50;100.00
55068;BME280;40965;52.368;9.712;2023-07-20T06:34:03;100632.56;;;15.65;100.00
55068;BME280;40965;52.368;9.712;2023-07-20T06:36:31;100640.91;;;15.80;100.00
55068;BME280;40965;52.368;9.712;2023-07-20T06:38:58;100639.53;;;15.98;100.00
55068;BME280;40965;52.368;9.712;2023-07-20T06:41:27;100648.09;;;16.06;100.00
55068;BME280;40965;52.368;9.712;2023-07-20T06:43:55;100647.44;;;15.98;100.00
55068;BME280;40965;52.368;9.712;2023-07-20T06:46:26;100654.94;;;15.83;100.00
55068;BME280;40965;52.368;9.712;2023-07-20T06:48:53;100654.22;;;15.77;100.00
55068;BME280;40965;52.368;9.712;2023-07-20T06:51:20;100666.31;;;15.85;100.00
55068;BME280;40965;52.368;9.712;2023-07-20T06:53:47;100658.44;;;15.84;100.00
55068;BME280;40965;52.368;9.712;2023-07-20T06:56:13;100657.44;;;15.88;100.00
55068;BME280;40965;52.368;9.712;2023-07-20T06:58:40;100657.50;;;16.13;100.00
55068;BME280;40965;52.368;9.712;2023-07-20T07:01:08;100658.44;;;16.39;100.00
55068;BME280;40965;52.368;9.712;2023-07-20T07:03:34;100666.66;;;16.57;100.00
55068;BME280;40965;52.368;9.712;2023-07-20T07:06:02;100665.03;;;16.52;100.00
55068;BME280;40965;52.368;9.712;2023-07-20T07:08:28;100669.53;;;16.50;99.80
55068;BME280;40965;52.368;9.712;2023-07-20T07:10:55;100666.59;;;16.58;99.82
55068;BME280;40965;52.368;9.712;2023-07-20T07:13:22;100672.72;;;16.85;98.89
55068;BME280;40965;52.368;9.712;2023-07-20T07:15:48;100671.59;;;17.19;96.87
55068;BME280;40965;52.368;9.712;2023-07-20T07:18:15;100666.66;;;17.34;95.04
55068;BME280;40965;52.368;9.712;2023-07-20T07:20:50;100666.97;;;17.72;92.24
55068;BME280;40965;52.368;9.712;2023-07-20T07:23:18;100656.75;;;18.09;90.58
55068;BME280;40965;52.368;9.712;2023-07-20T07:25:46;100662.97;;;18.30;87.88
55068;BME280;40965;52.368;9.712;2023-07-20T07:28:13;100659.59;;;18.47;88.32
55068;BME280;40965;52.368;9.712;2023-07-20T07:30:40;100657.47;;;18.77;86.94
55068;BME280;40965;52.368;9.712;2023-07-20T07:33:07;100664.66;;;19.15;84.39
55068;BME280;40965;52.368;9.712;2023-07-20T07:35:35;100665.66;;;19.12;84.36
55068;BME280;40965;52.368;9.712;2023-07-20T07:38:02;100667.16;;;18.99;84.26
55068;BME280;40965;52.368;9.712;2023-07-20T07:40:28;100671.56;;;18.57;85.14
55068;BME280;40965;52.368;9.712;2023-07-20T07:42:55;100683.41;;;18.26;87.13
55068;BME280;40965;52.368;9.712;2023-07-20T07:45:22;100683.84;;;18.15;87.67
55068;BME280;40965;52.368;9.712;2023-07-20T07:47:48;100693.09;;;18.05;86.53
55068;BME280;40965;52.368;9.712;2023-07-20T07:50:15;100692.31;;;18.25;84.87
55068;BME280;40965;52.368;9.712;2023-07-20T07:52:45;100689.00;;;18.41;84.75
55068;BME280;40965;52.368;9.712;2023-07-20T07:55:49;100689.06;;;18.39;84.40
55068;BME280;40965;52.368;9.712;2023-07-20T07:58:16;100686.78;;;18.95;82.65
55068;BME280;40965;52.368;9.712;2023-07-20T08:00:44;100687.84;;;20.08;77.27
55068;BME280;40965;52.368;9.712;2023-07-20T08:03:12;100683.13;;;20.87;72.81
55068;BME280;40965;52.368;9.712;2023-07-20T08:05:44;100690.16;;;21.39;69.64
55068;BME280;40965;52.368;9.712;2023-07-20T08:08:12;100684.13;;;21.35;69.01
55068;BME280;40965;52.368;9.712;2023-07-20T08:10:38;100689.69;;;20.97;67.71
55068;BME280;40965;52.368;9.712;2023-07-20T08:13:10;100690.06;;;21.58;65.50
55068;BME280;40965;52.368;9.712;2023-07-20T08:19:08;100687.88;;;23.05;59.82
55068;BME280;40965;52.368;9.712;2023-07-20T08:21:35;100691.41;;;22.61;59.49
55068;BME280;40965;52.368;9.712;2023-07-20T08:24:01;100698.59;;;21.47;62.26
55068;BME280;40965;52.368;9.712;2023-07-20T08:26:28;100697.69;;;20.97;64.52
55068;BME280;40965;52.368;9.712;2023-07-20T08:28:54;100702.22;;;21.95;61.56
55068;BME280;40965;52.368;9.712;2023-07-20T08:31:21;100689.34;;;23.25;57.03
55068;BME280;40965;52.368;9.712;2023-07-20T08:33:48;100691.66;;;24.57;52.49
55068;BME280;40965;52.368;9.712;2023-07-20T08:36:15;100690.69;;;25.50;49.95
55068;BME280;40965;52.368;9.712;2023-07-20T08:38:41;100687.38;;;26.45;44.06
55068;BME280;40965;52.368;9.712;2023-07-20T08:41:08;100687.44;;;26.32;45.14
55068;BME280;40965;52.368;9.712;2023-07-20T08:43:37;100694.13;;;25.39;46.19
55068;BME280;40965;52.368;9.712;2023-07-20T08:46:05;100701.91;;;23.95;47.62
55068;BME280;40965;52.368;9.712;2023-07-20T08:48:33;100704.69;;;23.79;48.16
55068;BME280;40965;52.368;9.712;2023-07-20T08:51:00;100700.34;;;25.01;42.41
55068;BME280;40965;52.368;9.712;2023-07-20T08:53:27;100696.00;;;26.37;40.53
55068;BME280;40965;52.368;9.712;2023-07-20T08:55:55;100696.16;;;27.29;38.16
55068;BME280;40965;52.368;9.712;2023-07-20T08:58:23;100702.38;;;25.99;39.59
55068;BME280;40965;52.368;9.712;2023-07-20T09:00:52;100705.03;;;24.57;42.46
55068;BME280;40965;52.368;9.712;2023-07-20T09:03:19;100698.41;;;23.23;45.67
55068;BME280;40965;52.368;9.712;2023-07-20T09:05:46;100698.69;;;23.76;45.15
55068;BME280;40965;52.368;9.712;2023-07-20T09:08:12;100699.53;;;25.76;40.94
55068;BME280;40965;52.368;9.712;2023-07-20T09:10:39;100690.84;;;26.22;38.79
55068;BME280;40965;52.368;9.712;2023-07-20T09:13:05;100694.53;;;25.33;40.64
55068;BME280;40965;52.368;9.712;2023-07-20T09:15:32;100695.13;;;24.32;42.67
55068;BME280;40965;52.368;9.712;2023-07-20T09:18:01;100687.97;;;23.76;44.47
55068;BME280;40965;52.368;9.712;2023-07-20T09:20:31;100693.00;;;24.64;42.68
55068;BME280;40965;52.368;9.712;2023-07-20T09:22:59;100691.13;;;25.93;39.40
55068;BME280;40965;52.368;9.712;2023-07-20T09:25:26;100694.13;;;27.55;37.33
55068;BME280;40965;52.368;9.712;2023-07-20T09:27:53;100689.00;;;29.15;34.17
55068;BME280;40965;52.368;9.712;2023-07-20T09:30:24;100685.28;;;29.58;32.86
55068;BME280;40965;52.368;9.712;2023-07-20T09:32:51;100689.41;;;29.62;32.43
55068;BME280;40965;52.368;9.712;2023-07-20T09:35:20;100695.53;;;29.74;32.58
55068;BME280;40965;52.368;9.712;2023-07-20T09:37:58;100693.41;;;27.53;33.60
55068;BME280;40965;52.368;9.712;2023-07-20T09:40:26;100689.69;;;27.77;34.96
55068;BME280;40965;52.368;9.712;2023-07-20T09:42:55;100689.19;;;28.71;32.37
55068;BME280;40965;52.368;9.712;2023-07-20T09:45:41;100692.59;;;29.15;32.14
55068;BME280;40965;52.368;9.712;2023-07-20T09:48:09;100684.88;;;27.92;34.03
55068;BME280;40965;52.368;9.712;2023-07-20T09:50:41;100688.59;;;26.16;35.31
55068;BME280;40965;52.368;9.712;2023-07-20T09:53:12;100686.09;;;25.89;34.47
55068;BME280;40965;52.368;9.712;2023-07-20T09:55:40;100681.50;;;27.67;32.10
55068;BME280;40965;52.368;9.712;2023-07-20T09:58:10;100683.38;;;29.18;30.66
55068;BME280;40965;52.368;9.712;2023-07-20T10:00:38;100687.84;;;30.20;28.59
55068;BME280;40965;52.368;9.712;2023-07-20T10:03:06;100690.59;;;28.54;30.24
55068;BME280;40965;52.368;9.712;2023-07-20T10:05:34;100694.81;;;27.80;32.08
55068;BME280;40965;52.368;9.712;2023-07-20T10:08:03;100678.91;;;29.28;30.95
55068;BME280;40965;52.368;9.712;2023-07-20T10:10:33;100685.66;;;31.02;28.66
55068;BME280;40965;52.368;9.712;2023-07-20T10:13:01;100685.72;;;31.67;27.32
55068;BME280;40965;52.368;9.712;2023-07-20T10:15:43;100688.56;;;32.12;26.06
55068;BME280;40965;52.368;9.712;2023-07-20T10:18:33;100692.84;;;31.69;26.75
55068;BME280;40965;52.368;9.712;2023-07-20T10:21:06;100695.47;;;31.50;26.81
55068;BME280;40965;52.368;9.712;2023-07-20T10:23:32;100695.19;;;31.06;26.80
55068;BME280;40965;52.368;9.712;2023-07-20T10:26:01;100696.66;;;30.22;27.71
55068;BME280;40965;52.368;9.712;2023-07-20T10:28:28;100684.78;;;31.21;26.91
55068;BME280;40965;52.368;9.712;2023-07-20T10:30:54;100686.13;;;30.09;27.82
55068;BME280;40965;52.368;9.712;2023-07-20T10:33:21;100685.78;;;27.70;30.79
55068;BME280;40965;52.368;9.712;2023-07-20T10:35:56;100686.75;;;26.65;32.59
55068;BME280;40965;52.368;9.712;2023-07-20T10:38:42;100698.72;;;25.63;34.10
55068;BME280;40965;52.368;9.712;2023-07-20T10:41:20;100688.97;;;25.99;34.22
55068;BME280;40965;52.368;9.712;2023-07-20T10:43:49;100681.72;;;28.63;30.43
55068;BME280;40965;52.368;9.712;2023-07-20T10:49:07;100676.59;;;29.54;28.44
55068;BME280;40965;52.368;9.712;2023-07-20T10:51:44;100684.88;;;27.92;30.47
55068;BME280;40965;52.368;9.712;2023-07-20T10:56:51;100689.38;;;25.68;34.43
55068;BME280;40965;52.368;9.712;2023-07-20T10:59:19;100687.25;;;25.22;35.48
55068;BME280;40965;52.368;9.712;2023-07-20T11:01:47;100685.75;;;25.05;35.87
55068;BME280;40965;52.368;9.712;2023-07-20T11:04:14;100687.69;;;26.64;34.15
55068;BME280;40965;52.368;9.712;2023-07-20T11:06:45;100679.56;;;28.57;31.01
55068;BME280;40965;52.368;9.712;2023-07-20T11:09:14;100674.47;;;30.77;27.62
55068;BME280;40965;52.368;9.712;2023-07-20T11:11:43;100668.13;;;31.81;27.12
55068;BME280;40965;52.368;9.712;2023-07-20T11:14:26;100675.69;;;31.78;26.17
55068;BME280;40965;52.368;9.712;2023-07-20T11:16:53;100690.28;;;29.82;29.07
55068;BME280;40965;52.368;9.712;2023-07-20T11:19:21;100678.75;;;30.50;28.04
55068;BME280;40965;52.368;9.712;2023-07-20T11:21:53;100673.00;;;31.96;26.32
55068;BME280;40965;52.368;9.712;2023-07-20T11:24:20;100684.41;;;30.96;27.28
55068;BME280;40965;52.368;9.712;2023-07-20T11:26:52;100684.41;;;30.96;27.73
55068;BME280;40965;52.368;9.712;2023-07-20T11:29:21;100684.09;;;30.90;27.73
55068;BME280;40965;52.368;9.712;2023-07-20T11:31:50;100688.50;;;30.91;28.05
55068;BME280;40965;52.368;9.712;2023-07-20T11:34:17;100689.69;;;30.19;28.60
55068;BME280;40965;52.368;9.712;2023-07-20T11:36:47;100684.50;;;28.94;29.56
55068;BME280;40965;52.368;9.712;2023-07-20T11:39:17;100691.19;;;26.78;32.64
55068;BME280;40965;52.368;9.712;2023-07-20T11:41:51;100702.03;;;25.27;35.13
55068;BME280;40965;52.368;9.712;2023-07-20T11:44:20;100696.84;;;23.91;37.20
55068;BME280;40965;52.368;9.712;2023-07-20T11:47:09;100705.28;;;23.56;37.94
55068;BME280;40965;52.368;9.712;2023-07-20T11:49:38;100698.44;;;24.35;37.18
55068;BME280;40965;52.368;9.712;2023-07-20T11:52:10;100680.00;;;26.95;33.40
55068;BME280;40965;52.368;9.712;2023-07-20T11:54:42;100680.00;;;29.04;30.24
55068;BME280;40965;52.368;9.712;2023-07-20T11:57:21;100671.22;;;30.44;28.28
55068;BME280;40965;52.368;9.712;2023-07-20T11:59:55;100668.91;;;31.92;26.69
55068;BME280;40965;52.368;9.712;2023-07-20T12:02:24;100669.22;;;32.79;25.38
55068;BME280;40965;52.368;9.712;2023-07-20T12:04:54;100665.38;;;33.16;25.49
55068;BME280;40965;52.368;9.712;2023-07-20T12:07:21;100664.59;;;34.34;23.92
55068;BME280;40965;52.368;9.712;2023-07-20T12:10:05;100664.34;;;33.43;24.12
55068;BME280;40965;52.368;9.712;2023-07-20T12:12:42;100661.84;;;34.09;23.33
55068;BME280;40965;52.368;9.712;2023-07-20T12:17:50;100657.72;;;30.34;26.20
55068;BME280;40965;52.368;9.712;2023-07-20T12:20:34;100679.22;;;27.63;29.96
55068;BME280;40965;52.368;9.712;2023-07-20T12:23:12;100670.63;;;26.30;32.27
55068;BME280;40965;52.368;9.712;2023-07-20T12:25:41;100674.00;;;25.46;33.08
55068;BME280;40965;52.368;9.712;2023-07-20T12:28:11;100672.38;;;24.92;34.53
55068;BME280;40965;52.368;9.712;2023-07-20T12:30:40;100670.63;;;24.78;35.04
55068;BME280;40965;52.368;9.712;2023-07-20T12:33:07;100676.75;;;24.93;34.97
55068;BME280;40965;52.368;9.712;2023-07-20T12:35:34;100677.94;;;25.27;35.17
55068;BME280;40965;52.368;9.712;2023-07-20T12:38:01;100670.63;;;27.35;31.84
55068;BME280;40965;52.368;9.712;2023-07-20T12:40:28;100668.38;;;29.66;28.77
55068;BME280;40965;52.368;9.712;2023-07-20T12:42:54;100664.88;;;31.50;26.74
55068;BME280;40965;52.368;9.712;2023-07-20T12:45:21;100654.31;;;33.36;24.57
55068;BME280;40965;52.368;9.712;2023-07-20T12:47:48;100657.44;;;34.66;23.19
55068;BME280;40965;52.368;9.712;2023-07-20T12:50:14;100645.19;;;34.87;22.88
55068;BME280;40965;52.368;9.712;2023-07-20T12:52:41;100648.75;;;34.95;22.65
55068;BME280;40965;52.368;9.712;2023-07-20T12:55:09;100649.66;;;32.93;24.56
55068;BME280;40965;52.368;9.712;2023-07-20T12:57:37;100661.69;;;30.60;27.27
55068;BME280;40965;52.368;9.712;2023-07-20T13:00:07;100654.78;;;28.63;29.06
55068;BME280;40965;52.368;9.712;2023-07-20T13:06:17;100662.75;;;25.41;33.94
55068;BME280;40965;52.368;9.712;2023-07-20T13:08:44;100660.28;;;24.99;34.25
55068;BME280;40965;52.368;9.712;2023-07-20T13:11:11;100652.31;;;25.10;33.35
55068;BME280;40965;52.368;9.712;2023-07-20T13:13:39;100660.09;;;26.51;31.35